Main page
METAR-TAF:

METAR-TAF

Airports :

Zahedan Airport

Zahedan, Iran

latitude: 29-28N, longitude: 060-53E, elevation: 1370 m

Current weather observation

The report was made 27 minutes ago, at 22:00 UTC
Calm wind
Temperature 8°C
Humidity 49%
Pressure 1022 hPa
Visibility 10 km or more
no clouds below 1500 m and no cumulonimbus

METAR: OIZH 172200Z 00000KT CAVOK 08/M02 Q1021 A3017

Time: 01:57 (22:27 UTC)

Forecast

The report was made 4 hours and 57 minutes ago, at 17:30 UTC
Forecast valid from 17 at 18 UTC to 18 at 24 UTC
Wind 6 kt from the South/Southeast
Visibility 10 km or more
no clouds below 1500 m and no cumulonimbus
Temporary
from 17 at 12 UTC to 17 at 15 UTC
Wind 10 kt from the North/Northeast
Few clouds at a height of 4000 ft

TAF: OIZH 171730Z 1718/1824 15003MPS CAVOK TEMPO 1712/1715 030005MPS FEW040

Weather observations and forecasts of more than 4000 airports (METAR and TAF reports).

The available stations are represented by yellow and red dots on the map.

Hover mouse over dot to see the name of the station.

Then click to see weather observations and forecasts.

To change the map : click on the green buttons with a black cross to zoom in, on the green button with a dash to zoom out, or on the green arrows for adjacent maps.


METAR-TAF: